Stone Corral
DateTemperatureDew Point
12/08 - 10:45 AM49.4°42.5°
12/08 - 10:30 AM51.3°42.7°
12/08 - 10:15 AM51.9°41.7°
12/08 - 10:00 AM53.4°40.6°
12/08 - 09:45 AM52.6°39.3°
12/08 - 09:30 AM52.7°38.2°
12/08 - 09:15 AM52.0°38.6°
12/08 - 09:00 AM48.1°38.4°
12/08 - 08:45 AM41.7°38.3°
12/08 - 08:30 AM38.3°35.3°
12/08 - 08:15 AM38.5°35.0°
12/08 - 08:00 AM39.0°35.1°
12/08 - 07:45 AM39.3°35.1°
12/08 - 07:30 AM39.2°35.5°
12/08 - 07:15 AM37.2°35.1°
12/08 - 07:00 AM34.8°32.3°
12/08 - 06:45 AM35.0°31.7°
12/08 - 06:30 AM36.5°33.0°
12/08 - 06:15 AM38.4°36.0°
12/08 - 06:00 AM36.9°35.1°
12/08 - 05:45 AM34.3°32.3°
12/08 - 05:30 AM34.0°31.7°
12/08 - 05:15 AM34.2°31.6°
12/08 - 05:00 AM34.7°31.8°
12/08 - 04:45 AM35.6°32.4°
12/08 - 04:30 AM36.4°32.7°
12/08 - 04:15 AM38.0°33.2°
12/08 - 04:00 AM39.9°34.2°
12/08 - 03:45 AM40.0°34.6°
12/08 - 03:30 AM39.6°34.7°
12/08 - 03:15 AM38.2°34.4°
12/08 - 03:00 AM38.2°34.6°
12/08 - 02:45 AM37.6°34.5°
12/08 - 02:30 AM36.8°33.4°
12/08 - 02:15 AM37.7°33.8°
12/08 - 02:00 AM38.3°34.6°
12/08 - 01:45 AM37.8°34.2°
12/08 - 01:30 AM37.8°34.2°
12/08 - 01:15 AM37.8°33.9°
12/08 - 01:00 AM38.8°34.4°
12/08 - 12:45 AM39.6°34.7°
12/08 - 12:30 AM40.4°34.7°
12/08 - 12:15 AM41.1°34.9°
12/08 - 12:00 AM41.1°34.7°
12/07 - 11:45 PM41.2°34.4°
12/07 - 11:30 PM40.6°33.8°
12/07 - 11:15 PM41.4°33.8°
12/07 - 11:00 PM43.4°34.4°
12/07 - 10:45 PM45.4°34.9°
12/07 - 10:30 PM47.3°34.4°
12/07 - 10:15 PM48.8°34.8°
12/07 - 10:00 PM49.0°34.9°
12/07 - 09:45 PM48.9°34.7°
12/07 - 09:30 PM49.6°34.7°
12/07 - 09:15 PM50.5°34.9°
12/07 - 09:00 PM49.8°35.1°
12/07 - 08:45 PM48.8°35.0°
12/07 - 08:30 PM50.2°34.9°
12/07 - 08:15 PM49.3°34.1°
12/07 - 08:00 PM48.5°34.7°
12/07 - 07:45 PM48.8°34.9°
12/07 - 07:30 PM48.8°34.4°
12/07 - 07:15 PM48.7°34.0°
12/07 - 07:00 PM49.1°33.9°
12/07 - 06:45 PM49.2°34.9°
12/07 - 06:30 PM49.2°35.8°
12/07 - 06:15 PM50.0°36.4°
12/07 - 06:00 PM51.0°36.3°
12/07 - 05:45 PM53.3°37.7°
12/07 - 05:30 PM54.3°37.9°
12/07 - 05:15 PM54.8°37.9°
12/07 - 05:00 PM55.6°38.1°
12/07 - 04:45 PM56.3°38.5°
12/07 - 04:30 PM57.6°38.6°
12/07 - 04:15 PM59.3°38.8°
12/07 - 04:00 PM60.8°39.8°
12/07 - 03:45 PM61.9°41.2°
12/07 - 03:30 PM62.6°41.8°
12/07 - 03:15 PM63.8°43.0°
12/07 - 03:00 PM64.3°44.0°
12/07 - 02:45 PM65.2°44.1°
12/07 - 02:30 PM65.7°44.9°
12/07 - 02:15 PM66.0°44.6°
12/07 - 02:00 PM65.9°44.1°
12/07 - 01:45 PM66.8°44.6°
12/07 - 01:30 PM66.2°46.0°
12/07 - 01:15 PM65.6°46.0°
12/07 - 01:00 PM65.6°45.8°
12/07 - 12:45 PM65.0°45.9°
12/07 - 12:30 PM64.6°46.8°
12/07 - 12:15 PM64.8°47.6°
12/07 - 12:00 PM64.5°48.8°
12/07 - 11:45 AM63.3°48.6°
12/07 - 11:30 AM62.4°48.5°
12/07 - 11:15 AM61.3°48.4°
12/07 - 11:00 AM59.5°48.3°
12/07 - 10:45 AM58.9°49.1°
12/07 - 10:30 AM59.1°49.1°
12/07 - 10:15 AM57.8°48.4°
12/07 - 10:00 AM56.3°47.9°
12/07 - 09:45 AM55.7°48.3°
12/07 - 09:30 AM54.7°48.0°
12/07 - 09:15 AM54.5°48.8°
12/07 - 09:00 AM52.7°50.8°
12/07 - 08:45 AM47.8°47.1°
12/07 - 08:30 AM43.5°42.8°
12/07 - 08:15 AM43.4°42.6°
12/07 - 08:00 AM43.4°42.6°
12/07 - 07:45 AM43.0°42.1°
12/07 - 07:30 AM42.6°41.6°
12/07 - 07:15 AM42.9°41.8°
12/07 - 07:00 AM42.8°41.7°
12/07 - 06:45 AM43.5°42.3°
12/07 - 06:30 AM43.8°42.5°
12/07 - 06:15 AM44.2°42.9°
12/07 - 06:00 AM44.8°43.4°
12/07 - 05:45 AM45.1°43.5°
12/07 - 05:30 AM45.5°43.8°
12/07 - 05:15 AM45.9°44.0°
12/07 - 05:00 AM46.5°44.5°
12/07 - 04:45 AM47.4°45.3°
12/07 - 04:30 AM48.0°46.0°
12/07 - 04:15 AM48.6°46.8°
12/07 - 04:00 AM48.6°46.7°
12/07 - 03:45 AM48.6°46.6°
12/07 - 03:30 AM48.2°45.8°
12/07 - 03:15 AM48.2°45.4°
12/07 - 03:00 AM49.1°45.8°
12/07 - 02:45 AM50.2°46.3°
12/07 - 02:30 AM51.7°47.2°
12/07 - 02:15 AM53.3°48.3°
12/07 - 02:00 AM53.7°48.7°
12/07 - 01:45 AM53.9°48.4°
12/07 - 01:30 AM54.2°48.2°
12/07 - 01:15 AM55.3°48.6°
12/07 - 01:00 AM55.7°48.9°
12/07 - 12:45 AM54.7°48.0°
12/07 - 12:30 AM54.1°46.9°
12/07 - 12:15 AM55.3°46.7°
12/07 - 12:00 AM55.4°46.9°
12/06 - 11:45 PM53.4°46.0°
12/06 - 11:30 PM54.8°46.2°
12/06 - 11:15 PM55.7°46.5°
12/06 - 11:00 PM55.9°46.4°
12/06 - 10:45 PM57.1°46.1°
12/06 - 10:30 PM57.9°45.8°
12/06 - 10:15 PM57.2°45.2°
12/06 - 10:00 PM55.7°44.8°
12/06 - 09:45 PM55.9°45.3°
12/06 - 09:30 PM57.4°45.7°
12/06 - 09:15 PM58.5°45.8°
12/06 - 09:00 PM59.9°45.9°
12/06 - 08:45 PM58.1°45.9°
12/06 - 08:30 PM57.3°47.2°
12/06 - 08:15 PM57.9°47.8°
12/06 - 08:00 PM58.7°48.0°
12/06 - 07:45 PM59.4°48.2°
12/06 - 07:30 PM59.9°45.9°
12/06 - 07:15 PM60.3°44.4°
12/06 - 07:00 PM60.9°45.1°
12/06 - 06:45 PM61.6°45.4°
12/06 - 06:30 PM61.9°44.9°
12/06 - 06:15 PM63.0°44.9°
12/06 - 06:00 PM63.6°45.0°
12/06 - 05:45 PM64.0°45.4°
12/06 - 05:30 PM65.2°45.5°
12/06 - 05:15 PM66.1°44.7°
12/06 - 05:00 PM66.3°45.3°
12/06 - 04:45 PM68.2°43.6°
12/06 - 04:30 PM69.6°41.4°
12/06 - 04:15 PM70.1°41.5°
12/06 - 04:00 PM71.3°41.3°
12/06 - 03:45 PM72.3°41.3°
12/06 - 03:30 PM73.9°42.5°
12/06 - 03:15 PM76.0°43.3°
12/06 - 03:00 PM77.5°39.9°
12/06 - 02:45 PM79.4°38.6°
12/06 - 02:30 PM80.1°36.9°
12/06 - 02:15 PM82.5°36.8°
12/06 - 02:00 PM81.8°38.3°
12/06 - 01:45 PM79.7°38.0°
12/06 - 01:30 PM81.1°37.9°
12/06 - 01:15 PM81.8°38.9°
12/06 - 01:00 PM80.8°39.4°
12/06 - 12:45 PM79.1°38.4°
12/06 - 12:30 PM79.3°39.4°
12/06 - 12:15 PM77.3°40.9°
12/06 - 12:00 PM75.2°41.5°
12/06 - 11:45 AM73.9°41.4°
12/06 - 11:30 AM73.9°41.0°
12/06 - 11:15 AM73.7°40.8°